createdAt,value
2018-01-26T00:02:06.889Z,101797.86
2018-01-26T00:04:36.079Z,101798.29
2018-01-26T00:07:04.925Z,101800.06
2018-01-26T00:09:33.799Z,101800.11
2018-01-26T00:12:02.764Z,101789.97
2018-01-26T00:14:31.900Z,101791.01
2018-01-26T00:17:01.103Z,101790.36
2018-01-26T00:19:29.960Z,101798.12
2018-01-26T00:21:58.837Z,101799.59
2018-01-26T00:24:27.680Z,101792.38
2018-01-26T00:26:57.780Z,101789.10
2018-01-26T00:29:27.253Z,101786.69
2018-01-26T00:31:56.082Z,101781.69
2018-01-26T00:34:25.393Z,101787.81
2018-01-26T00:36:54.273Z,101786.38
2018-01-26T00:39:23.343Z,101792.07
2018-01-26T00:41:53.432Z,101791.34
2018-01-26T00:44:22.533Z,101796.00
2018-01-26T00:47:00.114Z,101792.50
2018-01-26T00:49:28.983Z,101794.88
2018-01-26T00:51:57.781Z,101793.11
2018-01-26T00:54:30.716Z,101791.28
2018-01-26T00:56:59.924Z,101788.58
2018-01-26T00:59:29.218Z,101781.41
2018-01-26T01:01:58.965Z,101778.34
2018-01-26T01:04:27.952Z,101784.26
2018-01-26T01:06:57.270Z,101782.48
2018-01-26T01:09:28.250Z,101771.46
2018-01-26T01:11:57.491Z,101767.93
2018-01-26T01:14:26.368Z,101770.00
2018-01-26T01:16:57.578Z,101771.94
2018-01-26T01:19:26.716Z,101765.03
2018-01-26T01:21:55.900Z,101762.62
2018-01-26T01:24:27.000Z,101762.11
2018-01-26T01:26:55.956Z,101763.44
2018-01-26T01:29:24.935Z,101755.77
2018-01-26T01:31:56.454Z,101757.53
2018-01-26T01:34:25.641Z,101762.31
2018-01-26T01:36:54.912Z,101760.77
2018-01-26T01:39:25.829Z,101758.87
2018-01-26T01:41:54.645Z,101756.93
2018-01-26T01:44:23.865Z,101756.06
2018-01-26T01:46:54.734Z,101753.22
2018-01-26T01:49:23.979Z,101750.16
2018-01-26T01:51:53.264Z,101750.80
2018-01-26T01:54:22.614Z,101746.67
2018-01-26T01:56:51.779Z,101745.72
2018-01-26T01:59:21.013Z,101744.20
2018-01-26T02:01:50.124Z,101749.90
2018-01-26T02:04:19.486Z,101746.10
2018-01-26T02:06:48.589Z,101746.02
2018-01-26T02:09:17.819Z,101743.60
2018-01-26T02:11:46.991Z,101738.52
2018-01-26T02:14:16.349Z,101740.31
2018-01-26T02:16:47.024Z,101738.71
2018-01-26T02:19:16.248Z,101740.75
2018-01-26T02:21:45.537Z,101731.73
2018-01-26T02:24:15.721Z,101736.95
2018-01-26T02:26:44.818Z,101737.98
2018-01-26T02:29:13.721Z,101733.55
2018-01-26T02:31:43.039Z,101732.13
2018-01-26T02:34:11.914Z,101733.08
2018-01-26T02:36:40.733Z,101726.95
2018-01-26T02:39:11.394Z,101736.17
2018-01-26T02:41:40.219Z,101734.97
2018-01-26T02:44:09.052Z,101736.34
2018-01-26T02:46:37.993Z,101726.00
2018-01-26T02:49:06.828Z,101732.85
2018-01-26T02:51:35.974Z,101736.13
2018-01-26T02:54:05.715Z,101733.05
2018-01-26T02:56:34.512Z,101728.87
2018-01-26T02:59:03.341Z,101733.72
2018-01-26T03:01:33.036Z,101734.30
2018-01-26T03:04:01.852Z,101734.73
2018-01-26T03:06:30.705Z,101736.58
2018-01-26T03:08:59.596Z,101732.27
2018-01-26T03:11:28.429Z,101734.58
2018-01-26T03:13:57.720Z,101732.24
2018-01-26T03:16:26.671Z,101732.78
2018-01-26T03:18:55.971Z,101732.98
2018-01-26T03:21:24.765Z,101733.33
2018-01-26T03:23:53.736Z,101726.92
2018-01-26T03:26:22.970Z,101724.38
2018-01-26T03:28:51.755Z,101726.22
2018-01-26T03:31:25.321Z,101718.37
2018-01-26T03:33:54.480Z,101726.00
2018-01-26T03:36:23.582Z,101733.75
2018-01-26T03:38:53.339Z,101733.95
2018-01-26T03:41:22.429Z,101728.44
2018-01-26T03:43:51.283Z,101729.52
2018-01-26T03:46:20.376Z,101734.10
2018-01-26T03:48:49.508Z,101739.05
2018-01-26T03:51:18.384Z,101733.67
2018-01-26T03:53:47.682Z,101735.48
2018-01-26T03:56:16.843Z,101739.95
2018-01-26T03:58:46.079Z,101741.59
2018-01-26T04:01:17.205Z,101738.33
2018-01-26T04:03:46.344Z,101737.52
2018-01-26T04:06:15.482Z,101738.43
2018-01-26T04:08:44.319Z,101738.86
2018-01-26T04:11:13.521Z,101746.39
2018-01-26T04:13:42.561Z,101744.95
2018-01-26T04:16:11.417Z,101734.16
2018-01-26T04:18:40.228Z,101741.58
2018-01-26T04:21:09.126Z,101741.25
2018-01-26T04:23:41.197Z,101744.37
2018-01-26T04:26:11.211Z,101746.03
2018-01-26T04:28:40.252Z,101748.41
2018-01-26T04:31:12.193Z,101745.23
2018-01-26T04:33:42.501Z,101742.92
2018-01-26T04:36:11.590Z,101743.66
2018-01-26T04:38:40.652Z,101741.13
2018-01-26T04:41:15.621Z,101742.71
2018-01-26T04:43:46.356Z,101746.16
2018-01-26T04:46:16.659Z,101748.91
2018-01-26T04:48:46.726Z,101757.16
2018-01-26T04:51:20.720Z,101755.30
2018-01-26T04:53:50.290Z,101752.55
2018-01-26T04:56:24.025Z,101753.98
2018-01-26T04:58:55.782Z,101760.33
2018-01-26T05:01:25.321Z,101757.44
2018-01-26T05:03:54.585Z,101758.95
2018-01-26T05:06:24.714Z,101761.48
2018-01-26T05:08:54.139Z,101756.02
2018-01-26T05:11:24.372Z,101750.62
2018-01-26T05:13:53.733Z,101750.16
2018-01-26T05:16:23.185Z,101759.67
2018-01-26T05:18:52.164Z,101762.14
2018-01-26T05:21:22.484Z,101761.67
2018-01-26T05:23:51.697Z,101763.65
2018-01-26T05:26:21.105Z,101763.69
2018-01-26T05:28:50.406Z,101760.41
2018-01-26T05:31:24.544Z,101762.34
2018-01-26T05:33:54.617Z,101764.84
2018-01-26T05:36:27.074Z,101767.95
2018-01-26T05:38:57.248Z,101766.91
2018-01-26T05:41:26.545Z,101764.81
2018-01-26T05:43:57.077Z,101764.55
2018-01-26T05:46:25.868Z,101761.10
2018-01-26T05:48:55.515Z,101773.56
2018-01-26T05:51:26.764Z,101771.06
2018-01-26T05:53:56.428Z,101773.92
2018-01-26T05:56:26.472Z,101775.47
2018-01-26T05:58:56.824Z,101774.82
2018-01-26T06:01:26.327Z,101759.81
2018-01-26T06:03:55.577Z,101770.70
2018-01-26T06:06:24.963Z,101773.20
2018-01-26T06:08:55.192Z,101774.47
2018-01-26T06:11:29.056Z,101778.48
2018-01-26T06:13:58.847Z,101782.41
2018-01-26T06:16:28.021Z,101780.24
2018-01-26T06:18:57.211Z,101780.84
2018-01-26T06:21:26.361Z,101778.87
2018-01-26T06:23:55.506Z,101777.56
2018-01-26T06:26:24.357Z,101781.02
2018-01-26T06:28:53.544Z,101778.00
2018-01-26T06:31:22.691Z,101784.05
2018-01-26T06:33:58.812Z,101781.59
2018-01-26T06:36:28.087Z,101784.48
2018-01-26T06:38:57.030Z,101783.28
2018-01-26T06:41:26.849Z,101780.09
2018-01-26T06:43:57.275Z,101783.97
2018-01-26T06:46:26.571Z,101789.97
2018-01-26T06:48:56.790Z,101786.75
2018-01-26T06:51:25.983Z,101791.05
2018-01-26T06:53:54.955Z,101795.30
2018-01-26T06:56:24.878Z,101791.91
2018-01-26T06:58:55.423Z,101787.89
2018-01-26T07:01:24.603Z,101792.51
2018-01-26T07:03:58.003Z,101780.22
2018-01-26T07:06:27.884Z,101787.95
2018-01-26T07:08:57.523Z,101772.03
2018-01-26T07:11:26.788Z,101778.58
2018-01-26T07:13:59.424Z,101772.89
2018-01-26T07:16:28.779Z,101773.59
2018-01-26T07:18:58.097Z,101779.01
2018-01-26T07:21:27.277Z,101776.80
2018-01-26T07:23:57.472Z,101776.51
2018-01-26T07:26:28.637Z,101773.89
2018-01-26T07:29:00.218Z,101775.97
2018-01-26T07:31:29.691Z,101775.79
2018-01-26T07:34:00.976Z,101773.20
2018-01-26T07:36:30.692Z,101773.23
2018-01-26T07:39:00.133Z,101779.08
2018-01-26T07:41:33.028Z,101773.77
2018-01-26T07:44:02.194Z,101775.13
2018-01-26T07:46:33.417Z,101778.64
2018-01-26T07:49:07.330Z,101780.26
2018-01-26T07:51:36.424Z,101785.51
2018-01-26T07:54:05.330Z,101778.84
2018-01-26T07:56:34.490Z,101783.81
2018-01-26T07:59:03.677Z,101785.42
2018-01-26T08:01:32.766Z,101783.76
2018-01-26T08:04:03.225Z,101786.11
2018-01-26T08:06:32.049Z,101783.45
2018-01-26T08:09:00.935Z,101783.03
2018-01-26T08:11:31.639Z,101791.67
2018-01-26T08:14:01.799Z,101794.70
2018-01-26T08:16:31.635Z,101795.14
2018-01-26T08:19:00.839Z,101799.75
2018-01-26T08:21:33.575Z,101800.36
2018-01-26T08:24:02.508Z,101800.88
2018-01-26T08:26:31.617Z,101807.25
2018-01-26T08:29:01.670Z,101800.03
2018-01-26T08:31:30.786Z,101800.56
2018-01-26T08:33:59.627Z,101803.54
2018-01-26T08:36:31.003Z,101803.34
2018-01-26T08:39:01.009Z,101810.08
2018-01-26T08:41:30.149Z,101801.61
2018-01-26T08:43:59.169Z,101798.07
2018-01-26T08:46:30.633Z,101794.38
2018-01-26T08:48:59.492Z,101797.94
2018-01-26T08:51:28.410Z,101802.31
2018-01-26T08:53:59.073Z,101793.94
2018-01-26T08:56:27.982Z,101789.91
2018-01-26T08:58:56.863Z,101790.99
2018-01-26T09:01:29.168Z,101784.00
2018-01-26T09:03:58.008Z,101791.48
2018-01-26T09:06:26.813Z,101788.94
2018-01-26T09:08:55.837Z,101790.56
2018-01-26T09:11:24.688Z,101783.27
2018-01-26T09:13:53.528Z,101774.02
2018-01-26T09:16:22.468Z,101773.41
2018-01-26T09:18:51.287Z,101769.86
2018-01-26T09:21:20.147Z,101771.27
2018-01-26T09:23:49.146Z,101766.73
2018-01-26T09:26:18.058Z,101778.75
2018-01-26T09:28:46.875Z,101768.34
2018-01-26T09:31:15.736Z,101764.30
2018-01-26T09:33:44.556Z,101759.81
2018-01-26T09:36:13.381Z,101758.25
2018-01-26T09:38:42.487Z,101757.23
2018-01-26T09:41:11.322Z,101768.80
2018-01-26T09:43:40.157Z,101760.28
2018-01-26T09:46:10.232Z,101760.70
2018-01-26T09:48:39.233Z,101753.60
2018-01-26T09:51:08.107Z,101754.12
2018-01-26T09:53:38.629Z,101751.08
2018-01-26T09:56:07.688Z,101753.91
2018-01-26T09:58:36.594Z,101749.73
2018-01-26T10:01:06.265Z,101756.02
2018-01-26T10:03:35.103Z,101758.70
2018-01-26T10:06:03.917Z,101744.29
2018-01-26T10:08:34.504Z,101742.66
2018-01-26T10:11:03.479Z,101744.27
2018-01-26T10:13:32.283Z,101744.06
2018-01-26T10:16:01.108Z,101741.05
2018-01-26T10:18:30.022Z,101739.61
2018-01-26T10:20:58.849Z,101745.47
2018-01-26T10:23:27.693Z,101741.76
2018-01-26T10:25:56.473Z,101742.42
2018-01-26T10:28:26.153Z,101747.91
2018-01-26T10:30:55.277Z,101746.09
2018-01-26T10:33:24.173Z,101736.02
2018-01-26T10:35:52.943Z,101746.77
2018-01-26T10:38:22.717Z,101748.27
2018-01-26T10:40:51.488Z,101745.40
2018-01-26T10:43:20.303Z,101736.34
2018-01-26T10:45:49.221Z,101739.19
2018-01-26T10:48:18.021Z,101734.52
2018-01-26T10:50:46.968Z,101736.16
2018-01-26T10:53:15.874Z,101727.14
2018-01-26T10:55:44.673Z,101723.51
2018-01-26T10:58:13.570Z,101720.39
2018-01-26T11:00:46.800Z,101716.75
2018-01-26T11:03:15.722Z,101713.58
2018-01-26T11:05:44.521Z,101719.94
2018-01-26T11:08:13.337Z,101706.39
2018-01-26T11:10:42.155Z,101701.68
2018-01-26T11:13:10.946Z,101698.95
2018-01-26T11:15:40.624Z,101698.20
2018-01-26T11:18:09.528Z,101695.47
2018-01-26T11:20:38.348Z,101684.64
2018-01-26T11:23:07.270Z,101688.26
2018-01-26T11:25:36.072Z,101680.63
2018-01-26T11:28:04.904Z,101678.59
2018-01-26T11:30:33.885Z,101676.80
2018-01-26T11:33:02.699Z,101676.03
2018-01-26T11:35:31.601Z,101669.30
2018-01-26T11:38:00.671Z,101673.94
2018-01-26T11:40:29.534Z,101677.61
2018-01-26T11:42:58.323Z,101671.52
2018-01-26T11:45:27.224Z,101673.90
2018-01-26T11:47:56.063Z,101675.20
2018-01-26T11:50:24.863Z,101675.70
2018-01-26T11:52:54.603Z,101675.76
2018-01-26T11:55:23.489Z,101675.52
2018-01-26T11:57:52.362Z,101680.08
2018-01-26T12:00:27.095Z,101679.81
2018-01-26T12:02:55.912Z,101675.08
2018-01-26T12:05:24.695Z,101678.17
2018-01-26T12:07:54.348Z,101681.64
2018-01-26T12:10:23.197Z,101683.53
2018-01-26T12:12:52.011Z,101673.40
2018-01-26T12:15:20.877Z,101670.42
2018-01-26T12:17:49.799Z,101689.39
2018-01-26T12:20:18.643Z,101674.13
2018-01-26T12:22:50.211Z,101675.13
2018-01-26T12:25:22.159Z,101679.83
2018-01-26T12:27:54.208Z,101674.41
2018-01-26T12:30:23.321Z,101678.95
2018-01-26T12:32:52.367Z,101673.16
2018-01-26T12:35:22.003Z,101671.51
2018-01-26T12:37:50.852Z,101681.66
2018-01-26T12:40:19.693Z,101681.03
2018-01-26T12:42:48.552Z,101675.81
2018-01-26T12:45:17.341Z,101678.78
2018-01-26T12:47:46.112Z,101676.08
2018-01-26T12:50:14.914Z,101665.49
2018-01-26T12:52:43.686Z,101676.54
2018-01-26T12:55:12.595Z,101679.70
2018-01-26T12:57:41.422Z,101678.56
2018-01-26T13:00:10.267Z,101680.50
2018-01-26T13:02:39.136Z,101682.33
2018-01-26T13:05:08.855Z,101687.41
2018-01-26T13:07:37.630Z,101690.97
2018-01-26T13:10:06.450Z,101682.78
2018-01-26T13:12:35.284Z,101694.55
2018-01-26T13:15:04.267Z,101688.15
2018-01-26T13:17:33.044Z,101698.52
2018-01-26T13:20:02.892Z,101696.58
2018-01-26T13:22:31.938Z,101696.63
2018-01-26T13:25:00.748Z,101697.43
2018-01-26T13:27:30.642Z,101698.06
2018-01-26T13:29:59.435Z,101700.83
2018-01-26T13:32:28.222Z,101699.94
2018-01-26T13:34:57.063Z,101710.46
2018-01-26T13:37:25.871Z,101709.17
2018-01-26T13:39:54.698Z,101714.00
2018-01-26T13:42:23.588Z,101711.85
2018-01-26T13:44:52.383Z,101714.74
2018-01-26T13:47:21.185Z,101717.42
2018-01-26T13:49:54.856Z,101714.91
2018-01-26T13:52:23.668Z,101713.33
2018-01-26T13:54:52.566Z,101713.82
2018-01-26T13:57:21.558Z,101721.30
2018-01-26T13:59:50.409Z,101724.47
2018-01-26T14:02:19.235Z,101724.27
2018-01-26T14:04:48.104Z,101721.36
2018-01-26T14:07:16.926Z,101726.25
2018-01-26T14:09:45.817Z,101724.27
2018-01-26T14:12:14.645Z,101729.73
2018-01-26T14:14:43.391Z,101728.11
2018-01-26T14:17:12.202Z,101725.50
2018-01-26T14:19:41.025Z,101728.51
2018-01-26T14:22:09.839Z,101727.25
2018-01-26T14:24:38.877Z,101731.01
2018-01-26T14:27:08.096Z,101735.40
2018-01-26T14:29:37.076Z,101736.83
2018-01-26T14:32:06.116Z,101740.59
2018-01-26T14:34:36.704Z,101740.05
2018-01-26T14:37:05.519Z,101745.30
2018-01-26T14:39:34.485Z,101747.43
2018-01-26T14:42:03.375Z,101744.89
2018-01-26T14:44:32.176Z,101753.11
2018-01-26T14:47:01.155Z,101747.58
2018-01-26T14:49:31.240Z,101747.27
2018-01-26T14:52:00.030Z,101756.31
2018-01-26T14:54:28.864Z,101754.98
2018-01-26T14:56:58.615Z,101768.04
2018-01-26T14:59:28.030Z,101757.30
2018-01-26T15:01:56.876Z,101758.45
2018-01-26T15:04:26.615Z,101763.05
2018-01-26T15:06:55.423Z,101759.71
2018-01-26T15:09:24.241Z,101765.55
2018-01-26T15:11:55.533Z,101764.53
2018-01-26T15:14:24.883Z,101774.42
2018-01-26T15:16:54.988Z,101767.89
2018-01-26T15:19:26.572Z,101776.34
2018-01-26T15:21:56.442Z,101777.97
2018-01-26T15:24:25.454Z,101782.87
2018-01-26T15:26:55.468Z,101786.82
2018-01-26T15:29:24.373Z,101788.31
2018-01-26T15:31:53.144Z,101795.56
2018-01-26T15:34:22.917Z,101798.44
2018-01-26T15:36:52.816Z,101805.33
2018-01-26T15:39:21.729Z,101802.43
2018-01-26T15:41:54.197Z,101805.72
2018-01-26T15:44:23.111Z,101811.16
2018-01-26T15:46:52.011Z,101818.45
2018-01-26T15:49:20.822Z,101818.34
2018-01-26T15:51:49.615Z,101811.32
2018-01-26T15:54:18.417Z,101817.16
2018-01-26T15:56:48.167Z,101822.41
2018-01-26T15:59:17.080Z,101827.66
2018-01-26T16:01:45.999Z,101828.39
2018-01-26T16:04:17.569Z,101833.05
2018-01-26T16:06:46.345Z,101832.34
2018-01-26T16:09:15.234Z,101841.11
2018-01-26T16:11:44.301Z,101844.72
2018-01-26T16:14:13.123Z,101845.77
2018-01-26T16:16:41.995Z,101845.50
2018-01-26T16:19:11.760Z,101850.39
2018-01-26T16:21:40.639Z,101859.95
2018-01-26T16:24:09.530Z,101852.65
2018-01-26T16:26:43.611Z,101862.37
2018-01-26T16:29:13.553Z,101861.55
2018-01-26T16:31:42.480Z,101860.66
2018-01-26T16:34:14.969Z,101858.34
2018-01-26T16:36:43.993Z,101861.59
2018-01-26T16:39:12.974Z,101859.58
2018-01-26T16:41:42.055Z,101863.33
2018-01-26T16:44:11.009Z,101854.84
2018-01-26T16:46:39.960Z,101856.39
2018-01-26T16:49:09.222Z,101857.95
2018-01-26T16:51:38.128Z,101861.97
2018-01-26T16:54:06.985Z,101863.09
2018-01-26T16:56:38.443Z,101866.16
2018-01-26T16:59:07.244Z,101866.68
2018-01-26T17:01:36.212Z,101869.34
2018-01-26T17:04:08.481Z,101865.67
2018-01-26T17:06:37.327Z,101872.06
2018-01-26T17:09:06.157Z,101879.06
2018-01-26T17:11:34.946Z,101872.20
2018-01-26T17:14:03.887Z,101871.86
2018-01-26T17:16:32.697Z,101867.45
2018-01-26T17:19:03.228Z,101867.37
2018-01-26T17:21:32.111Z,101874.91
2018-01-26T17:24:00.929Z,101871.16
2018-01-26T17:26:31.591Z,101876.44
2018-01-26T17:29:00.391Z,101869.74
2018-01-26T17:31:29.251Z,101879.66
2018-01-26T17:33:58.557Z,101874.57
2018-01-26T17:36:27.395Z,101877.41
2018-01-26T17:38:56.228Z,101874.11
2018-01-26T17:41:25.978Z,101880.25
2018-01-26T17:43:54.805Z,101887.96
2018-01-26T17:46:23.635Z,101883.23
2018-01-26T17:48:52.614Z,101884.28
2018-01-26T17:51:21.474Z,101889.38
2018-01-26T17:53:50.505Z,101894.97
2018-01-26T17:56:19.483Z,101891.59
2018-01-26T17:58:48.316Z,101887.63
2018-01-26T18:01:17.120Z,101887.94
2018-01-26T18:03:46.270Z,101889.62
2018-01-26T18:06:15.123Z,101893.63
2018-01-26T18:08:43.995Z,101889.98
2018-01-26T18:11:13.699Z,101881.30
2018-01-26T18:13:42.560Z,101884.16
2018-01-26T18:16:11.504Z,101882.80
2018-01-26T18:18:40.367Z,101888.38
2018-01-26T18:21:09.233Z,101880.12
2018-01-26T18:23:38.225Z,101881.91
2018-01-26T18:26:07.964Z,101890.07
2018-01-26T18:28:36.823Z,101892.34
2018-01-26T18:31:05.634Z,101886.05
2018-01-26T18:33:35.369Z,101885.03
2018-01-26T18:36:04.202Z,101881.05
2018-01-26T18:38:34.216Z,101884.36
2018-01-26T18:41:03.194Z,101883.19
2018-01-26T18:43:32.065Z,101885.44
2018-01-26T18:46:00.941Z,101886.23
2018-01-26T18:48:29.792Z,101890.36
2018-01-26T18:50:58.616Z,101894.73
2018-01-26T18:53:27.444Z,101896.61
2018-01-26T18:55:58.002Z,101892.68
2018-01-26T18:58:26.857Z,101894.55
2018-01-26T19:00:55.722Z,101888.39
2018-01-26T19:03:25.510Z,101892.08
2018-01-26T19:05:54.415Z,101894.70
2018-01-26T19:08:23.288Z,101895.70
2018-01-26T19:10:52.568Z,101897.89
2018-01-26T19:13:21.421Z,101893.69
2018-01-26T19:15:50.221Z,101895.83
2018-01-26T19:18:19.106Z,101894.19
2018-01-26T19:20:47.957Z,101907.52
2018-01-26T19:23:17.056Z,101905.73
2018-01-26T19:25:45.940Z,101900.69
2018-01-26T19:28:14.776Z,101907.33
2018-01-26T19:30:43.722Z,101911.45
2018-01-26T19:33:15.332Z,101900.34
2018-01-26T19:35:44.224Z,101907.52
2018-01-26T19:38:13.060Z,101916.02
2018-01-26T19:40:41.961Z,101906.97
2018-01-26T19:43:10.758Z,101909.77
2018-01-26T19:45:39.701Z,101911.33
2018-01-26T19:48:08.841Z,101908.88
2018-01-26T19:50:37.741Z,101908.90
2018-01-26T19:53:06.622Z,101910.72
2018-01-26T19:55:35.729Z,101903.15
2018-01-26T19:58:04.634Z,101909.31
2018-01-26T20:00:33.570Z,101908.02
2018-01-26T20:03:14.455Z,101904.06
2018-01-26T20:05:58.908Z,101911.99
2018-01-26T20:08:34.091Z,101918.63
2018-01-26T20:11:02.892Z,101921.80
2018-01-26T20:13:31.807Z,101919.33
2018-01-26T20:16:02.452Z,101918.09
2018-01-26T20:18:31.283Z,101921.85
2018-01-26T20:21:00.109Z,101928.23
2018-01-26T20:23:29.058Z,101922.94
2018-01-26T20:25:57.906Z,101923.52
2018-01-26T20:28:26.739Z,101926.58
2018-01-26T20:30:55.584Z,101925.03
2018-01-26T20:33:24.462Z,101927.66
2018-01-26T20:35:53.443Z,101923.52
2018-01-26T20:38:22.347Z,101928.18
2018-01-26T20:40:53.111Z,101928.55
2018-01-26T20:43:21.916Z,101928.05
2018-01-26T20:45:51.755Z,101931.63
2018-01-26T20:48:20.917Z,101930.52
2018-01-26T20:50:49.782Z,101932.20
2018-01-26T20:53:18.630Z,101934.61
2018-01-26T20:55:47.510Z,101935.82
2018-01-26T20:58:16.356Z,101939.63
2018-01-26T21:00:45.491Z,101941.48
2018-01-26T21:03:14.302Z,101940.19
2018-01-26T21:05:43.277Z,101948.86
2018-01-26T21:08:12.367Z,101949.13
2018-01-26T21:10:41.226Z,101955.21
2018-01-26T21:13:11.006Z,101954.34
2018-01-26T21:15:42.345Z,101958.23
2018-01-26T21:18:11.249Z,101953.62
2018-01-26T21:20:40.069Z,101950.81
2018-01-26T21:23:09.423Z,101946.75
2018-01-26T21:25:38.220Z,101951.84
2018-01-26T21:28:07.110Z,101955.08
2018-01-26T21:30:36.923Z,101953.50
2018-01-26T21:33:05.793Z,101958.42
2018-01-26T21:35:34.681Z,101959.33
2018-01-26T21:38:03.755Z,101968.23
2018-01-26T21:40:32.570Z,101966.86
2018-01-26T21:43:01.428Z,101962.09
2018-01-26T21:45:32.028Z,101966.11
2018-01-26T21:48:00.825Z,101967.77
2018-01-26T21:50:29.755Z,101961.86
2018-01-26T21:55:32.678Z,101964.58
2018-01-26T21:58:01.457Z,101969.03
2018-01-26T22:00:30.437Z,101962.45
2018-01-26T22:02:59.257Z,101967.16
2018-01-26T22:05:28.087Z,101958.91
2018-01-26T22:07:58.747Z,101969.05
2018-01-26T22:10:27.569Z,101964.75
2018-01-26T22:12:56.411Z,101961.23
2018-01-26T22:15:27.058Z,101965.55
2018-01-26T22:23:55.616Z,101964.66
2018-01-26T22:26:24.513Z,101960.59
2018-01-26T22:28:53.417Z,101962.75
2018-01-26T22:31:22.254Z,101959.55
2018-01-26T22:33:51.995Z,101955.52
2018-01-26T22:36:20.823Z,101945.17
2018-01-26T22:38:49.666Z,101956.83
2018-01-26T22:41:21.184Z,101952.20
2018-01-26T22:43:49.954Z,101950.77
2018-01-26T22:46:18.761Z,101956.64
2018-01-26T22:48:47.599Z,101956.47
2018-01-26T22:51:16.556Z,101956.88
2018-01-26T22:53:45.379Z,101956.48
2018-01-26T22:56:15.249Z,101954.88
2018-01-26T22:58:44.116Z,101956.34
2018-01-26T23:01:12.941Z,101957.30
2018-01-26T23:03:42.684Z,101951.59
2018-01-26T23:06:11.454Z,101955.87
2018-01-26T23:08:40.377Z,101958.73
2018-01-26T23:11:10.063Z,101954.15
2018-01-26T23:13:38.923Z,101950.64
2018-01-26T23:16:07.784Z,101953.45
2018-01-26T23:18:38.525Z,101946.62
2018-01-26T23:21:07.374Z,101941.27
2018-01-26T23:23:36.358Z,101936.17
2018-01-26T23:26:06.383Z,101937.84
2018-01-26T23:28:35.225Z,101942.19
2018-01-26T23:31:04.142Z,101931.59
2018-01-26T23:33:32.984Z,101943.55
2018-01-26T23:36:01.824Z,101941.79
2018-01-26T23:38:30.688Z,101950.31
2018-01-26T23:40:59.554Z,101948.50
2018-01-26T23:43:28.435Z,101957.17
2018-01-26T23:45:57.273Z,101952.97
2018-01-26T23:48:26.519Z,101949.27
2018-01-26T23:50:55.477Z,101960.55
2018-01-26T23:53:24.394Z,101964.86
2018-01-26T23:55:54.136Z,101954.46
2018-01-26T23:58:23.011Z,101960.55
